sensor_id;sensor_type;location;lat;lon;timestamp;P1;durP1;ratioP1;P2;durP2;ratioP2
27839;SDS011;15207;42.182;24.308;2024-03-23T00:55:53;19.20;;;11.40;;
27839;SDS011;15207;42.182;24.308;2024-03-23T00:58:18;21.50;;;11.60;;
27839;SDS011;15207;42.182;24.308;2024-03-23T01:00:43;18.70;;;11.70;;
27839;SDS011;15207;42.182;24.308;2024-03-23T01:03:09;21.60;;;11.50;;
27839;SDS011;15207;42.182;24.308;2024-03-23T01:05:34;20.97;;;12.00;;
27839;SDS011;15207;42.182;24.308;2024-03-23T01:07:59;21.80;;;12.05;;
27839;SDS011;15207;42.182;24.308;2024-03-23T01:10:25;32.80;;;13.00;;
27839;SDS011;15207;42.182;24.308;2024-03-23T01:12:50;17.90;;;11.50;;
27839;SDS011;15207;42.182;24.308;2024-03-23T01:15:15;17.40;;;11.60;;
27839;SDS011;15207;42.182;24.308;2024-03-23T01:17:41;21.60;;;10.80;;
27839;SDS011;15207;42.182;24.308;2024-03-23T01:20:06;19.17;;;11.55;;
27839;SDS011;15207;42.182;24.308;2024-03-23T01:22:32;20.40;;;11.30;;
27839;SDS011;15207;42.182;24.308;2024-03-23T01:24:58;20.55;;;11.80;;
27839;SDS011;15207;42.182;24.308;2024-03-23T01:27:23;18.60;;;12.00;;
27839;SDS011;15207;42.182;24.308;2024-03-23T01:29:49;25.20;;;12.40;;
27839;SDS011;15207;42.182;24.308;2024-03-23T01:32:14;17.75;;;11.15;;
27839;SDS011;15207;42.182;24.308;2024-03-23T01:34:39;16.65;;;10.55;;
27839;SDS011;15207;42.182;24.308;2024-03-23T01:37:05;23.50;;;11.40;;
27839;SDS011;15207;42.182;24.308;2024-03-23T01:39:30;21.20;;;11.60;;
27839;SDS011;15207;42.182;24.308;2024-03-23T01:41:56;22.40;;;11.65;;
27839;SDS011;15207;42.182;24.308;2024-03-23T01:44:21;19.80;;;11.05;;
27839;SDS011;15207;42.182;24.308;2024-03-23T01:46:47;22.80;;;11.50;;
27839;SDS011;15207;42.182;24.308;2024-03-23T01:49:13;20.70;;;11.70;;
27839;SDS011;15207;42.182;24.308;2024-03-23T01:51:38;21.40;;;11.70;;
27839;SDS011;15207;42.182;24.308;2024-03-23T01:54:04;29.20;;;14.30;;
27839;SDS011;15207;42.182;24.308;2024-03-23T01:56:32;29.95;;;14.20;;
27839;SDS011;15207;42.182;24.308;2024-03-23T01:59:00;24.40;;;12.90;;
27839;SDS011;15207;42.182;24.308;2024-03-23T02:01:26;24.70;;;14.00;;
27839;SDS011;15207;42.182;24.308;2024-03-23T02:06:17;28.50;;;13.30;;
27839;SDS011;15207;42.182;24.308;2024-03-23T02:08:43;25.75;;;14.75;;
27839;SDS011;15207;42.182;24.308;2024-03-23T02:11:09;37.40;;;16.70;;
27839;SDS011;15207;42.182;24.308;2024-03-23T02:13:34;38.40;;;17.60;;
27839;SDS011;15207;42.182;24.308;2024-03-23T02:16:00;29.30;;;15.80;;
27839;SDS011;15207;42.182;24.308;2024-03-23T02:18:25;39.60;;;16.20;;
27839;SDS011;15207;42.182;24.308;2024-03-23T02:20:50;42.85;;;17.40;;
27839;SDS011;15207;42.182;24.308;2024-03-23T02:23:16;51.65;;;19.50;;
27839;SDS011;15207;42.182;24.308;2024-03-23T02:25:45;37.30;;;16.80;;
27839;SDS011;15207;42.182;24.308;2024-03-23T02:28:11;42.50;;;17.45;;
27839;SDS011;15207;42.182;24.308;2024-03-23T02:30:36;32.35;;;15.95;;
27839;SDS011;15207;42.182;24.308;2024-03-23T02:35:27;36.05;;;16.35;;
27839;SDS011;15207;42.182;24.308;2024-03-23T02:37:53;32.70;;;15.80;;
27839;SDS011;15207;42.182;24.308;2024-03-23T02:40:19;34.05;;;16.20;;
27839;SDS011;15207;42.182;24.308;2024-03-23T02:42:45;36.13;;;15.50;;
27839;SDS011;15207;42.182;24.308;2024-03-23T02:45:11;27.60;;;15.20;;
27839;SDS011;15207;42.182;24.308;2024-03-23T02:47:37;38.05;;;16.15;;
27839;SDS011;15207;42.182;24.308;2024-03-23T02:50:02;42.90;;;16.50;;
27839;SDS011;15207;42.182;24.308;2024-03-23T02:52:29;29.98;;;16.17;;
27839;SDS011;15207;42.182;24.308;2024-03-23T02:54:54;30.60;;;15.60;;
27839;SDS011;15207;42.182;24.308;2024-03-23T02:57:20;33.80;;;15.30;;
27839;SDS011;15207;42.182;24.308;2024-03-23T02:59:45;28.70;;;15.60;;
27839;SDS011;15207;42.182;24.308;2024-03-23T03:02:11;26.20;;;15.10;;
27839;SDS011;15207;42.182;24.308;2024-03-23T03:04:37;32.00;;;16.30;;
27839;SDS011;15207;42.182;24.308;2024-03-23T03:07:02;27.70;;;15.35;;
27839;SDS011;15207;42.182;24.308;2024-03-23T03:09:27;32.15;;;15.35;;
27839;SDS011;15207;42.182;24.308;2024-03-23T03:11:53;29.87;;;15.50;;
27839;SDS011;15207;42.182;24.308;2024-03-23T03:14:18;30.05;;;16.00;;
27839;SDS011;15207;42.182;24.308;2024-03-23T03:16:44;27.60;;;15.60;;
27839;SDS011;15207;42.182;24.308;2024-03-23T03:21:36;26.70;;;14.70;;
27839;SDS011;15207;42.182;24.308;2024-03-23T03:24:05;26.30;;;15.90;;
27839;SDS011;15207;42.182;24.308;2024-03-23T03:26:31;29.30;;;15.20;;
27839;SDS011;15207;42.182;24.308;2024-03-23T03:28:57;32.85;;;14.40;;
27839;SDS011;15207;42.182;24.308;2024-03-23T03:31:22;33.55;;;15.10;;
27839;SDS011;15207;42.182;24.308;2024-03-23T03:33:49;38.50;;;15.65;;
27839;SDS011;15207;42.182;24.308;2024-03-23T03:36:15;39.15;;;15.15;;
27839;SDS011;15207;42.182;24.308;2024-03-23T03:38:40;34.20;;;14.50;;
27839;SDS011;15207;42.182;24.308;2024-03-23T03:41:06;28.50;;;14.30;;
27839;SDS011;15207;42.182;24.308;2024-03-23T03:43:31;27.20;;;12.60;;
27839;SDS011;15207;42.182;24.308;2024-03-23T03:45:58;46.20;;;15.75;;
27839;SDS011;15207;42.182;24.308;2024-03-23T03:48:24;36.20;;;15.90;;
27839;SDS011;15207;42.182;24.308;2024-03-23T03:50:51;30.93;;;14.57;;
27839;SDS011;15207;42.182;24.308;2024-03-23T03:53:17;33.80;;;15.40;;
27839;SDS011;15207;42.182;24.308;2024-03-23T03:55:42;35.25;;;13.90;;
27839;SDS011;15207;42.182;24.308;2024-03-23T03:58:08;27.20;;;13.30;;
27839;SDS011;15207;42.182;24.308;2024-03-23T04:00:33;22.55;;;12.60;;
27839;SDS011;15207;42.182;24.308;2024-03-23T04:02:59;20.95;;;11.90;;
27839;SDS011;15207;42.182;24.308;2024-03-23T04:05:24;20.55;;;12.00;;
27839;SDS011;15207;42.182;24.308;2024-03-23T04:07:49;22.00;;;12.40;;
27839;SDS011;15207;42.182;24.308;2024-03-23T04:10:15;24.35;;;12.80;;
27839;SDS011;15207;42.182;24.308;2024-03-23T04:12:41;33.50;;;14.70;;
27839;SDS011;15207;42.182;24.308;2024-03-23T04:15:07;37.80;;;15.00;;
27839;SDS011;15207;42.182;24.308;2024-03-23T04:17:33;37.95;;;15.60;;
27839;SDS011;15207;42.182;24.308;2024-03-23T04:19:59;48.05;;;15.10;;
27839;SDS011;15207;42.182;24.308;2024-03-23T04:24:54;31.85;;;14.80;;
27839;SDS011;15207;42.182;24.308;2024-03-23T04:29:46;28.50;;;13.60;;
27839;SDS011;15207;42.182;24.308;2024-03-23T04:34:41;29.85;;;13.05;;
27839;SDS011;15207;42.182;24.308;2024-03-23T04:37:08;23.35;;;13.20;;
27839;SDS011;15207;42.182;24.308;2024-03-23T04:39:34;32.20;;;16.30;;
27839;SDS011;15207;42.182;24.308;2024-03-23T04:42:01;1727.80;;;17.00;;
27839;SDS011;15207;42.182;24.308;2024-03-23T04:44:26;41.73;;;17.30;;
27839;SDS011;15207;42.182;24.308;2024-03-23T04:46:51;30.70;;;16.10;;
27839;SDS011;15207;42.182;24.308;2024-03-23T04:49:17;33.03;;;15.60;;
27839;SDS011;15207;42.182;24.308;2024-03-23T04:51:42;30.00;;;15.40;;
27839;SDS011;15207;42.182;24.308;2024-03-23T04:54:11;39.80;;;15.40;;
27839;SDS011;15207;42.182;24.308;2024-03-23T04:56:37;38.55;;;16.10;;
27839;SDS011;15207;42.182;24.308;2024-03-23T04:59:02;36.60;;;15.50;;
27839;SDS011;15207;42.182;24.308;2024-03-23T05:01:30;32.40;;;14.00;;
27839;SDS011;15207;42.182;24.308;2024-03-23T05:03:58;32.15;;;13.30;;
27839;SDS011;15207;42.182;24.308;2024-03-23T05:06:24;24.60;;;12.00;;
27839;SDS011;15207;42.182;24.308;2024-03-23T05:08:50;31.30;;;15.70;;
27839;SDS011;15207;42.182;24.308;2024-03-23T05:13:42;41.60;;;22.65;;
27839;SDS011;15207;42.182;24.308;2024-03-23T05:16:07;35.70;;;17.45;;
27839;SDS011;15207;42.182;24.308;2024-03-23T05:18:33;23.48;;;13.95;;
27839;SDS011;15207;42.182;24.308;2024-03-23T05:20:59;25.65;;;12.80;;
27839;SDS011;15207;42.182;24.308;2024-03-23T05:25:50;22.05;;;11.65;;
27839;SDS011;15207;42.182;24.308;2024-03-23T05:28:16;20.60;;;11.40;;
27839;SDS011;15207;42.182;24.308;2024-03-23T05:30:42;22.30;;;12.40;;
27839;SDS011;15207;42.182;24.308;2024-03-23T05:33:08;22.10;;;12.50;;
27839;SDS011;15207;42.182;24.308;2024-03-23T05:35:33;28.60;;;13.85;;
27839;SDS011;15207;42.182;24.308;2024-03-23T05:37:58;26.90;;;14.70;;
27839;SDS011;15207;42.182;24.308;2024-03-23T05:40:25;21.40;;;13.25;;
27839;SDS011;15207;42.182;24.308;2024-03-23T05:42:51;27.35;;;13.10;;
27839;SDS011;15207;42.182;24.308;2024-03-23T05:45:21;29.77;;;12.77;;
27839;SDS011;15207;42.182;24.308;2024-03-23T05:47:47;24.50;;;12.50;;
27839;SDS011;15207;42.182;24.308;2024-03-23T05:50:13;23.00;;;12.40;;
27839;SDS011;15207;42.182;24.308;2024-03-23T05:52:39;27.50;;;12.60;;
27839;SDS011;15207;42.182;24.308;2024-03-23T05:55:04;21.00;;;12.25;;
27839;SDS011;15207;42.182;24.308;2024-03-23T05:57:30;19.70;;;11.80;;
27839;SDS011;15207;42.182;24.308;2024-03-23T05:59:56;20.20;;;10.50;;
27839;SDS011;15207;42.182;24.308;2024-03-23T06:02:22;21.10;;;9.75;;
27839;SDS011;15207;42.182;24.308;2024-03-23T06:04:47;20.23;;;10.03;;
27839;SDS011;15207;42.182;24.308;2024-03-23T06:07:13;21.60;;;9.15;;
27839;SDS011;15207;42.182;24.308;2024-03-23T06:09:42;14.50;;;9.50;;
27839;SDS011;15207;42.182;24.308;2024-03-23T06:12:07;20.95;;;10.07;;
27839;SDS011;15207;42.182;24.308;2024-03-23T06:14:33;16.95;;;9.10;;
27839;SDS011;15207;42.182;24.308;2024-03-23T06:16:59;15.77;;;8.33;;
27839;SDS011;15207;42.182;24.308;2024-03-23T06:19:25;14.50;;;8.50;;
27839;SDS011;15207;42.182;24.308;2024-03-23T06:21:54;11.40;;;7.45;;
27839;SDS011;15207;42.182;24.308;2024-03-23T06:24:21;17.90;;;8.10;;
27839;SDS011;15207;42.182;24.308;2024-03-23T06:26:47;15.80;;;7.85;;
27839;SDS011;15207;42.182;24.308;2024-03-23T06:29:13;11.00;;;7.10;;
27839;SDS011;15207;42.182;24.308;2024-03-23T06:31:38;13.90;;;7.80;;
27839;SDS011;15207;42.182;24.308;2024-03-23T06:34:04;12.60;;;7.40;;
27839;SDS011;15207;42.182;24.308;2024-03-23T06:36:29;11.60;;;8.00;;
27839;SDS011;15207;42.182;24.308;2024-03-23T06:38:55;10.20;;;7.60;;
27839;SDS011;15207;42.182;24.308;2024-03-23T06:41:21;13.60;;;7.90;;
27839;SDS011;15207;42.182;24.308;2024-03-23T06:43:47;11.40;;;7.60;;
27839;SDS011;15207;42.182;24.308;2024-03-23T06:46:12;14.75;;;8.20;;
27839;SDS011;15207;42.182;24.308;2024-03-23T06:48:37;15.25;;;8.10;;
27839;SDS011;15207;42.182;24.308;2024-03-23T06:51:03;16.10;;;8.40;;
27839;SDS011;15207;42.182;24.308;2024-03-23T06:55:54;12.80;;;7.70;;
27839;SDS011;15207;42.182;24.308;2024-03-23T06:58:20;13.35;;;7.70;;
27839;SDS011;15207;42.182;24.308;2024-03-23T07:00:47;11.00;;;7.70;;
27839;SDS011;15207;42.182;24.308;2024-03-23T07:03:12;15.35;;;7.85;;
27839;SDS011;15207;42.182;24.308;2024-03-23T07:05:38;12.85;;;8.05;;
27839;SDS011;15207;42.182;24.308;2024-03-23T07:08:04;12.35;;;7.95;;
27839;SDS011;15207;42.182;24.308;2024-03-23T07:10:29;13.50;;;8.20;;
27839;SDS011;15207;42.182;24.308;2024-03-23T07:12:55;13.65;;;7.65;;
27839;SDS011;15207;42.182;24.308;2024-03-23T07:15:20;15.85;;;7.70;;
27839;SDS011;15207;42.182;24.308;2024-03-23T07:17:46;11.10;;;7.50;;
27839;SDS011;15207;42.182;24.308;2024-03-23T07:20:12;12.30;;;7.70;;
27839;SDS011;15207;42.182;24.308;2024-03-23T07:22:38;12.45;;;7.90;;
27839;SDS011;15207;42.182;24.308;2024-03-23T07:25:04;15.60;;;8.30;;
27839;SDS011;15207;42.182;24.308;2024-03-23T07:27:31;22.50;;;9.50;;
27839;SDS011;15207;42.182;24.308;2024-03-23T07:32:22;14.80;;;8.80;;
27839;SDS011;15207;42.182;24.308;2024-03-23T07:37:13;16.60;;;9.25;;
27839;SDS011;15207;42.182;24.308;2024-03-23T07:39:41;15.40;;;9.10;;
27839;SDS011;15207;42.182;24.308;2024-03-23T07:42:07;17.45;;;9.60;;
27839;SDS011;15207;42.182;24.308;2024-03-23T07:44:32;19.50;;;10.35;;
27839;SDS011;15207;42.182;24.308;2024-03-23T07:46:58;23.50;;;11.00;;
27839;SDS011;15207;42.182;24.308;2024-03-23T07:49:25;20.20;;;11.30;;
27839;SDS011;15207;42.182;24.308;2024-03-23T07:51:51;18.45;;;10.45;;
27839;SDS011;15207;42.182;24.308;2024-03-23T07:54:16;15.15;;;9.95;;
27839;SDS011;15207;42.182;24.308;2024-03-23T07:56:42;13.25;;;8.00;;
27839;SDS011;15207;42.182;24.308;2024-03-23T07:59:07;17.40;;;8.30;;
27839;SDS011;15207;42.182;24.308;2024-03-23T08:01:33;15.47;;;8.47;;
27839;SDS011;15207;42.182;24.308;2024-03-23T08:03:58;13.90;;;9.20;;
27839;SDS011;15207;42.182;24.308;2024-03-23T08:06:24;13.20;;;8.70;;
27839;SDS011;15207;42.182;24.308;2024-03-23T08:08:56;12.20;;;8.10;;
27839;SDS011;15207;42.182;24.308;2024-03-23T08:11:26;13.95;;;7.95;;
27839;SDS011;15207;42.182;24.308;2024-03-23T08:13:52;13.90;;;7.60;;
27839;SDS011;15207;42.182;24.308;2024-03-23T08:16:18;11.40;;;7.30;;
27839;SDS011;15207;42.182;24.308;2024-03-23T08:18:43;26.35;;;8.35;;
27839;SDS011;15207;42.182;24.308;2024-03-23T08:21:09;11.25;;;7.75;;
27839;SDS011;15207;42.182;24.308;2024-03-23T08:23:34;19.53;;;8.80;;
27839;SDS011;15207;42.182;24.308;2024-03-23T08:26:03;12.05;;;8.60;;
27839;SDS011;15207;42.182;24.308;2024-03-23T08:28:30;10.75;;;6.90;;
27839;SDS011;15207;42.182;24.308;2024-03-23T08:30:56;7.60;;;6.00;;
27839;SDS011;15207;42.182;24.308;2024-03-23T08:33:22;12.60;;;6.85;;
27839;SDS011;15207;42.182;24.308;2024-03-23T08:35:58;6.90;;;5.50;;
27839;SDS011;15207;42.182;24.308;2024-03-23T08:38:24;9.00;;;6.70;;
27839;SDS011;15207;42.182;24.308;2024-03-23T08:41:00;15.30;;;6.90;;
27839;SDS011;15207;42.182;24.308;2024-03-23T08:43:26;10.55;;;6.05;;
27839;SDS011;15207;42.182;24.308;2024-03-23T08:45:52;11.60;;;6.05;;
27839;SDS011;15207;42.182;24.308;2024-03-23T08:48:21;9.00;;;6.10;;
27839;SDS011;15207;42.182;24.308;2024-03-23T08:50:46;9.00;;;5.60;;
27839;SDS011;15207;42.182;24.308;2024-03-23T08:53:12;11.67;;;5.23;;
27839;SDS011;15207;42.182;24.308;2024-03-23T08:55:38;14.00;;;5.60;;
27839;SDS011;15207;42.182;24.308;2024-03-23T08:58:03;11.60;;;5.50;;
27839;SDS011;15207;42.182;24.308;2024-03-23T09:00:29;8.30;;;5.60;;
27839;SDS011;15207;42.182;24.308;2024-03-23T09:02:55;11.20;;;5.00;;
27839;SDS011;15207;42.182;24.308;2024-03-23T09:05:22;9.60;;;5.20;;
27839;SDS011;15207;42.182;24.308;2024-03-23T09:07:49;7.60;;;5.20;;
27839;SDS011;15207;42.182;24.308;2024-03-23T09:10:14;10.10;;;5.05;;
27839;SDS011;15207;42.182;24.308;2024-03-23T09:15:05;8.50;;;5.10;;
27839;SDS011;15207;42.182;24.308;2024-03-23T09:17:31;9.70;;;5.03;;
27839;SDS011;15207;42.182;24.308;2024-03-23T09:19:56;11.80;;;5.90;;
27839;SDS011;15207;42.182;24.308;2024-03-23T09:22:21;6.50;;;4.85;;
27839;SDS011;15207;42.182;24.308;2024-03-23T09:24:47;7.00;;;4.45;;
27839;SDS011;15207;42.182;24.308;2024-03-23T09:27:12;7.45;;;4.65;;
27839;SDS011;15207;42.182;24.308;2024-03-23T09:32:03;9.85;;;5.10;;
27839;SDS011;15207;42.182;24.308;2024-03-23T09:34:28;13.80;;;5.07;;
27839;SDS011;15207;42.182;24.308;2024-03-23T09:36:54;9.20;;;5.30;;
27839;SDS011;15207;42.182;24.308;2024-03-23T09:39:19;7.00;;;4.90;;
27839;SDS011;15207;42.182;24.308;2024-03-23T09:41:45;10.40;;;5.15;;
27839;SDS011;15207;42.182;24.308;2024-03-23T09:44:11;9.50;;;5.20;;
27839;SDS011;15207;42.182;24.308;2024-03-23T09:46:36;7.22;;;5.32;;
27839;SDS011;15207;42.182;24.308;2024-03-23T09:49:04;8.60;;;5.30;;
27839;SDS011;15207;42.182;24.308;2024-03-23T09:51:33;12.00;;;5.80;;
27839;SDS011;15207;42.182;24.308;2024-03-23T09:54:00;9.45;;;5.80;;
27839;SDS011;15207;42.182;24.308;2024-03-23T09:56:26;9.10;;;5.70;;
27839;SDS011;15207;42.182;24.308;2024-03-23T09:58:51;10.00;;;5.30;;
27839;SDS011;15207;42.182;24.308;2024-03-23T10:01:25;6.90;;;5.30;;
27839;SDS011;15207;42.182;24.308;2024-03-23T10:03:51;9.90;;;5.50;;
27839;SDS011;15207;42.182;24.308;2024-03-23T10:08:46;9.15;;;4.80;;
27839;SDS011;15207;42.182;24.308;2024-03-23T10:11:15;6.75;;;4.20;;
27839;SDS011;15207;42.182;24.308;2024-03-23T10:16:08;5.20;;;4.30;;
27839;SDS011;15207;42.182;24.308;2024-03-23T10:18:36;9.50;;;4.75;;
27839;SDS011;15207;42.182;24.308;2024-03-23T10:23:32;6.70;;;4.40;;
27839;SDS011;15207;42.182;24.308;2024-03-23T10:29:01;6.75;;;4.40;;
27839;SDS011;15207;42.182;24.308;2024-03-23T10:31:32;6.20;;;4.75;;
27839;SDS011;15207;42.182;24.308;2024-03-23T10:34:02;8.10;;;4.80;;
27839;SDS011;15207;42.182;24.308;2024-03-23T10:36:29;8.50;;;4.25;;
27839;SDS011;15207;42.182;24.308;2024-03-23T10:38:55;7.20;;;4.60;;
27839;SDS011;15207;42.182;24.308;2024-03-23T10:41:23;11.00;;;4.85;;
27839;SDS011;15207;42.182;24.308;2024-03-23T10:43:52;8.90;;;4.40;;
27839;SDS011;15207;42.182;24.308;2024-03-23T10:46:20;8.60;;;4.10;;
27839;SDS011;15207;42.182;24.308;2024-03-23T10:48:46;9.70;;;4.60;;
27839;SDS011;15207;42.182;24.308;2024-03-23T10:51:12;12.30;;;4.60;;
27839;SDS011;15207;42.182;24.308;2024-03-23T10:53:39;8.65;;;4.35;;
27839;SDS011;15207;42.182;24.308;2024-03-23T10:56:05;7.40;;;4.25;;
27839;SDS011;15207;42.182;24.308;2024-03-23T11:01:05;5.45;;;4.30;;
27839;SDS011;15207;42.182;24.308;2024-03-23T11:05:56;5.25;;;3.95;;
27839;SDS011;15207;42.182;24.308;2024-03-23T11:08:34;7.40;;;4.30;;
27839;SDS011;15207;42.182;24.308;2024-03-23T11:11:22;10.25;;;5.03;;
27839;SDS011;15207;42.182;24.308;2024-03-23T11:13:52;8.10;;;4.50;;
27839;SDS011;15207;42.182;24.308;2024-03-23T11:16:28;7.90;;;4.80;;
27839;SDS011;15207;42.182;24.308;2024-03-23T11:22:00;8.10;;;4.70;;
27839;SDS011;15207;42.182;24.308;2024-03-23T11:26:51;7.80;;;4.50;;
27839;SDS011;15207;42.182;24.308;2024-03-23T11:29:17;8.80;;;5.00;;
27839;SDS011;15207;42.182;24.308;2024-03-23T11:31:46;9.30;;;5.10;;
27839;SDS011;15207;42.182;24.308;2024-03-23T11:34:12;10.25;;;5.45;;
27839;SDS011;15207;42.182;24.308;2024-03-23T11:36:38;5.10;;;4.20;;
27839;SDS011;15207;42.182;24.308;2024-03-23T11:42:03;7.50;;;4.70;;
27839;SDS011;15207;42.182;24.308;2024-03-23T11:44:29;7.00;;;4.70;;
27839;SDS011;15207;42.182;24.308;2024-03-23T11:46:54;7.00;;;4.88;;
27839;SDS011;15207;42.182;24.308;2024-03-23T11:51:58;7.55;;;4.35;;
27839;SDS011;15207;42.182;24.308;2024-03-23T11:54:23;12.95;;;5.00;;
27839;SDS011;15207;42.182;24.308;2024-03-23T11:59:32;8.00;;;4.75;;
27839;SDS011;15207;42.182;24.308;2024-03-23T12:02:05;13.80;;;5.15;;
27839;SDS011;15207;42.182;24.308;2024-03-23T12:04:41;7.53;;;4.60;;
27839;SDS011;15207;42.182;24.308;2024-03-23T12:07:11;14.00;;;5.20;;
27839;SDS011;15207;42.182;24.308;2024-03-23T12:09:39;8.20;;;4.80;;
27839;SDS011;15207;42.182;24.308;2024-03-23T12:12:09;8.35;;;5.10;;
27839;SDS011;15207;42.182;24.308;2024-03-23T12:17:12;9.20;;;5.50;;
27839;SDS011;15207;42.182;24.308;2024-03-23T12:19:39;6.80;;;4.90;;
27839;SDS011;15207;42.182;24.308;2024-03-23T12:22:06;5.75;;;4.15;;
27839;SDS011;15207;42.182;24.308;2024-03-23T12:24:33;6.00;;;4.30;;
27839;SDS011;15207;42.182;24.308;2024-03-23T12:27:03;8.40;;;4.60;;
27839;SDS011;15207;42.182;24.308;2024-03-23T12:29:30;6.80;;;3.60;;
27839;SDS011;15207;42.182;24.308;2024-03-23T12:34:24;8.80;;;4.10;;
27839;SDS011;15207;42.182;24.308;2024-03-23T12:36:49;6.25;;;3.80;;
27839;SDS011;15207;42.182;24.308;2024-03-23T12:39:14;7.50;;;3.70;;
27839;SDS011;15207;42.182;24.308;2024-03-23T12:41:40;5.70;;;3.70;;
27839;SDS011;15207;42.182;24.308;2024-03-23T12:44:05;7.90;;;3.85;;
27839;SDS011;15207;42.182;24.308;2024-03-23T12:46:33;5.07;;;3.77;;
27839;SDS011;15207;42.182;24.308;2024-03-23T12:48:58;6.30;;;3.90;;
27839;SDS011;15207;42.182;24.308;2024-03-23T12:51:24;8.50;;;3.70;;
27839;SDS011;15207;42.182;24.308;2024-03-23T12:53:50;7.50;;;4.30;;
27839;SDS011;15207;42.182;24.308;2024-03-23T12:56:16;5.25;;;3.80;;
27839;SDS011;15207;42.182;24.308;2024-03-23T12:58:42;5.80;;;3.50;;
27839;SDS011;15207;42.182;24.308;2024-03-23T13:01:07;5.78;;;3.80;;
27839;SDS011;15207;42.182;24.308;2024-03-23T13:03:32;6.50;;;3.30;;
27839;SDS011;15207;42.182;24.308;2024-03-23T13:05:58;6.40;;;3.55;;
27839;SDS011;15207;42.182;24.308;2024-03-23T13:08:23;6.05;;;3.80;;
27839;SDS011;15207;42.182;24.308;2024-03-23T13:10:51;7.10;;;3.70;;
27839;SDS011;15207;42.182;24.308;2024-03-23T13:13:17;10.25;;;3.80;;
27839;SDS011;15207;42.182;24.308;2024-03-23T13:15:42;6.20;;;3.55;;
27839;SDS011;15207;42.182;24.308;2024-03-23T13:18:14;10.85;;;3.60;;
27839;SDS011;15207;42.182;24.308;2024-03-23T13:20:40;5.75;;;3.45;;
27839;SDS011;15207;42.182;24.308;2024-03-23T13:23:05;7.20;;;3.30;;
27839;SDS011;15207;42.182;24.308;2024-03-23T13:25:31;3.90;;;3.10;;
27839;SDS011;15207;42.182;24.308;2024-03-23T13:27:56;4.90;;;3.20;;
27839;SDS011;15207;42.182;24.308;2024-03-23T13:30:21;5.50;;;3.25;;
27839;SDS011;15207;42.182;24.308;2024-03-23T13:32:47;8.15;;;3.55;;
27839;SDS011;15207;42.182;24.308;2024-03-23T13:37:37;4.30;;;2.70;;
27839;SDS011;15207;42.182;24.308;2024-03-23T13:40:03;4.70;;;2.70;;
27839;SDS011;15207;42.182;24.308;2024-03-23T13:42:29;7.00;;;3.90;;
27839;SDS011;15207;42.182;24.308;2024-03-23T13:44:54;4.95;;;3.95;;
27839;SDS011;15207;42.182;24.308;2024-03-23T13:47:19;6.60;;;3.65;;
27839;SDS011;15207;42.182;24.308;2024-03-23T13:49:45;9.70;;;4.32;;
27839;SDS011;15207;42.182;24.308;2024-03-23T13:52:11;5.47;;;3.90;;
27839;SDS011;15207;42.182;24.308;2024-03-23T13:54:36;7.60;;;4.10;;
27839;SDS011;15207;42.182;24.308;2024-03-23T13:57:02;5.90;;;4.10;;
27839;SDS011;15207;42.182;24.308;2024-03-23T14:01:53;6.40;;;4.70;;
27839;SDS011;15207;42.182;24.308;2024-03-23T14:04:19;5.60;;;4.30;;
27839;SDS011;15207;42.182;24.308;2024-03-23T14:06:45;9.70;;;4.15;;
27839;SDS011;15207;42.182;24.308;2024-03-23T14:09:11;4.40;;;3.90;;
27839;SDS011;15207;42.182;24.308;2024-03-23T14:11:40;6.40;;;3.70;;
27839;SDS011;15207;42.182;24.308;2024-03-23T14:14:08;8.40;;;4.10;;
27839;SDS011;15207;42.182;24.308;2024-03-23T14:16:34;4.93;;;4.00;;
27839;SDS011;15207;42.182;24.308;2024-03-23T14:18:59;11.30;;;3.60;;
27839;SDS011;15207;42.182;24.308;2024-03-23T14:21:25;4.40;;;3.70;;
27839;SDS011;15207;42.182;24.308;2024-03-23T14:23:50;8.00;;;4.25;;
27839;SDS011;15207;42.182;24.308;2024-03-23T14:26:16;7.10;;;4.40;;
27839;SDS011;15207;42.182;24.308;2024-03-23T14:28:41;8.95;;;4.35;;
27839;SDS011;15207;42.182;24.308;2024-03-23T14:31:07;6.65;;;4.10;;
27839;SDS011;15207;42.182;24.308;2024-03-23T14:36:06;5.10;;;4.15;;
27839;SDS011;15207;42.182;24.308;2024-03-23T14:38:32;7.80;;;4.15;;
27839;SDS011;15207;42.182;24.308;2024-03-23T14:40:58;6.95;;;4.10;;
27839;SDS011;15207;42.182;24.308;2024-03-23T14:43:24;9.00;;;4.00;;
27839;SDS011;15207;42.182;24.308;2024-03-23T14:48:34;5.90;;;4.20;;
27839;SDS011;15207;42.182;24.308;2024-03-23T14:51:00;7.80;;;3.80;;
27839;SDS011;15207;42.182;24.308;2024-03-23T14:53:29;5.40;;;3.60;;
27839;SDS011;15207;42.182;24.308;2024-03-23T14:55:56;5.15;;;3.85;;
27839;SDS011;15207;42.182;24.308;2024-03-23T14:58:21;7.10;;;3.90;;
27839;SDS011;15207;42.182;24.308;2024-03-23T15:00:48;4.75;;;3.85;;
27839;SDS011;15207;42.182;24.308;2024-03-23T15:03:14;8.30;;;4.00;;
27839;SDS011;15207;42.182;24.308;2024-03-23T15:05:39;8.85;;;3.95;;
27839;SDS011;15207;42.182;24.308;2024-03-23T15:08:05;7.30;;;3.80;;
27839;SDS011;15207;42.182;24.308;2024-03-23T15:10:32;5.50;;;3.00;;
27839;SDS011;15207;42.182;24.308;2024-03-23T15:12:58;4.00;;;3.20;;
27839;SDS011;15207;42.182;24.308;2024-03-23T15:15:23;6.10;;;3.60;;
27839;SDS011;15207;42.182;24.308;2024-03-23T15:17:49;6.20;;;4.00;;
27839;SDS011;15207;42.182;24.308;2024-03-23T15:20:15;8.55;;;3.40;;
27839;SDS011;15207;42.182;24.308;2024-03-23T15:22:41;9.45;;;3.30;;
27839;SDS011;15207;42.182;24.308;2024-03-23T15:25:07;7.10;;;3.50;;
27839;SDS011;15207;42.182;24.308;2024-03-23T15:27:33;8.80;;;4.70;;
27839;SDS011;15207;42.182;24.308;2024-03-23T15:29:58;10.30;;;4.10;;
27839;SDS011;15207;42.182;24.308;2024-03-23T15:32:24;5.70;;;3.90;;
27839;SDS011;15207;42.182;24.308;2024-03-23T15:34:49;5.40;;;3.83;;
27839;SDS011;15207;42.182;24.308;2024-03-23T15:37:15;5.90;;;3.50;;
27839;SDS011;15207;42.182;24.308;2024-03-23T15:39:40;5.00;;;2.90;;
27839;SDS011;15207;42.182;24.308;2024-03-23T15:42:08;6.00;;;3.30;;
27839;SDS011;15207;42.182;24.308;2024-03-23T15:49:26;10.00;;;4.10;;
27839;SDS011;15207;42.182;24.308;2024-03-23T15:51:51;7.30;;;3.50;;
27839;SDS011;15207;42.182;24.308;2024-03-23T15:54:16;6.20;;;3.75;;
27839;SDS011;15207;42.182;24.308;2024-03-23T15:56:42;11.40;;;4.00;;
27839;SDS011;15207;42.182;24.308;2024-03-23T15:59:07;6.80;;;4.40;;
27839;SDS011;15207;42.182;24.308;2024-03-23T16:01:33;11.10;;;4.75;;
27839;SDS011;15207;42.182;24.308;2024-03-23T16:04:00;7.85;;;4.15;;
27839;SDS011;15207;42.182;24.308;2024-03-23T16:06:26;13.35;;;4.40;;
27839;SDS011;15207;42.182;24.308;2024-03-23T16:08:52;8.50;;;4.20;;
27839;SDS011;15207;42.182;24.308;2024-03-23T16:11:18;11.40;;;5.45;;
27839;SDS011;15207;42.182;24.308;2024-03-23T16:13:43;16.10;;;7.00;;
27839;SDS011;15207;42.182;24.308;2024-03-23T16:16:09;20.40;;;8.40;;
27839;SDS011;15207;42.182;24.308;2024-03-23T16:18:38;20.60;;;8.80;;
27839;SDS011;15207;42.182;24.308;2024-03-23T16:21:06;18.53;;;7.73;;
27839;SDS011;15207;42.182;24.308;2024-03-23T16:25:58;15.70;;;7.50;;
27839;SDS011;15207;42.182;24.308;2024-03-23T16:28:25;14.70;;;6.80;;
27839;SDS011;15207;42.182;24.308;2024-03-23T16:30:57;14.70;;;6.90;;
27839;SDS011;15207;42.182;24.308;2024-03-23T16:33:27;15.70;;;5.70;;